createdAt,value
2022-11-12T00:00:25.501Z,7.63
2022-11-12T00:02:58.204Z,7.67
2022-11-12T00:05:31.102Z,7.53
2022-11-12T00:08:03.187Z,7.48
2022-11-12T00:10:36.194Z,7.44
2022-11-12T00:13:08.839Z,7.46
2022-11-12T00:15:41.474Z,7.52
2022-11-12T00:18:14.218Z,7.31
2022-11-12T00:20:46.874Z,7.46
2022-11-12T00:23:19.516Z,7.55
2022-11-12T00:25:59.218Z,7.53
2022-11-12T00:28:37.402Z,7.42
2022-11-12T00:31:12.115Z,7.46
2022-11-12T00:33:46.769Z,7.54
2022-11-12T00:36:19.377Z,7.59
2022-11-12T00:38:51.019Z,7.59
2022-11-12T00:41:20.234Z,7.52
2022-11-12T00:43:52.060Z,7.62
2022-11-12T00:46:21.111Z,7.71
2022-11-12T00:48:53.838Z,7.76
2022-11-12T00:51:26.780Z,7.69
2022-11-12T00:53:58.573Z,7.73
2022-11-12T00:56:35.382Z,7.58
2022-11-12T00:59:07.527Z,7.60
2022-11-12T01:01:40.195Z,7.25
2022-11-12T01:04:13.545Z,7.04
2022-11-12T01:06:46.737Z,6.99
2022-11-12T01:09:19.223Z,7.20
2022-11-12T01:11:51.806Z,7.11
2022-11-12T01:14:23.587Z,7.12
2022-11-12T01:16:55.362Z,7.15
2022-11-12T01:19:27.926Z,7.26
2022-11-12T01:21:59.771Z,7.35
2022-11-12T01:24:32.461Z,7.25
2022-11-12T01:27:05.080Z,7.32
2022-11-12T01:29:37.709Z,7.31
2022-11-12T01:32:10.341Z,7.51
2022-11-12T01:34:42.927Z,7.34
2022-11-12T01:37:15.511Z,7.43
2022-11-12T01:39:48.209Z,7.50
2022-11-12T01:42:20.784Z,7.56
2022-11-12T01:44:56.115Z,7.14
2022-11-12T01:47:36.454Z,7.06
2022-11-12T01:50:16.077Z,7.10
2022-11-12T01:53:01.918Z,7.03
2022-11-12T01:55:40.904Z,7.05
2022-11-12T01:58:18.603Z,7.14
2022-11-12T02:00:52.653Z,7.17
2022-11-12T02:03:28.560Z,7.24
2022-11-12T02:06:11.283Z,7.20
2022-11-12T02:08:44.876Z,7.27
2022-11-12T02:11:22.685Z,7.18
2022-11-12T02:14:03.666Z,7.23
2022-11-12T02:16:44.578Z,7.03
2022-11-12T02:19:17.749Z,6.82
2022-11-12T02:21:47.335Z,7.04
2022-11-12T02:24:16.672Z,7.01
2022-11-12T02:26:52.440Z,7.20
2022-11-12T02:29:22.952Z,7.25
2022-11-12T02:31:51.554Z,7.19
2022-11-12T02:34:21.080Z,7.09
2022-11-12T02:36:50.579Z,7.14
2022-11-12T02:39:20.039Z,7.23
2022-11-12T02:41:49.577Z,7.35
2022-11-12T02:44:19.122Z,7.21
2022-11-12T02:46:48.663Z,7.28
2022-11-12T02:49:18.133Z,7.45
2022-11-12T02:51:47.576Z,7.42
2022-11-12T02:54:17.050Z,7.39
2022-11-12T02:56:46.515Z,7.34
2022-11-12T02:59:16.000Z,7.34
2022-11-12T03:01:45.509Z,7.35
2022-11-12T03:04:14.975Z,7.40
2022-11-12T03:06:44.434Z,6.99
2022-11-12T03:09:14.131Z,6.81
2022-11-12T03:11:43.579Z,6.99
2022-11-12T03:14:13.039Z,7.11
2022-11-12T03:16:42.471Z,7.00
2022-11-12T03:19:11.925Z,7.05
2022-11-12T03:21:40.484Z,7.02
2022-11-12T03:24:09.984Z,7.14
2022-11-12T03:26:39.500Z,7.11
2022-11-12T03:29:08.066Z,7.23
2022-11-12T03:31:38.432Z,7.38
2022-11-12T03:34:08.035Z,7.34
2022-11-12T03:36:37.505Z,7.28
2022-11-12T03:39:07.164Z,7.41
2022-11-12T03:41:36.604Z,7.46
2022-11-12T03:44:06.103Z,7.38
2022-11-12T03:46:38.888Z,7.58
2022-11-12T03:49:10.964Z,7.41
2022-11-12T03:51:40.443Z,7.47
2022-11-12T03:54:10.007Z,7.54
2022-11-12T03:56:39.028Z,7.59
2022-11-12T03:59:08.562Z,7.60
2022-11-12T04:01:38.641Z,7.04
2022-11-12T04:04:09.780Z,7.11
2022-11-12T04:06:57.844Z,6.98
2022-11-12T04:09:27.377Z,6.85
2022-11-12T04:12:16.793Z,6.84
2022-11-12T04:14:46.210Z,6.92
2022-11-12T04:17:34.121Z,6.96
2022-11-12T04:20:22.560Z,7.01
2022-11-12T04:22:52.036Z,6.71
2022-11-12T04:25:39.928Z,6.78
2022-11-12T04:28:09.405Z,6.69
2022-11-12T04:30:38.831Z,6.63
2022-11-12T04:33:08.318Z,6.72
2022-11-12T04:35:37.851Z,6.80
2022-11-12T04:38:07.334Z,6.89
2022-11-12T04:40:55.406Z,6.52
2022-11-12T04:43:43.489Z,6.85
2022-11-12T04:46:13.017Z,6.78
2022-11-12T04:48:42.514Z,6.84
2022-11-12T04:51:31.344Z,6.75
2022-11-12T04:54:00.831Z,6.75
2022-11-12T04:56:30.362Z,6.81
2022-11-12T04:58:59.867Z,6.78
2022-11-12T05:01:29.381Z,6.84
2022-11-12T05:03:58.875Z,6.92
2022-11-12T05:06:57.651Z,6.85
2022-11-12T05:09:29.678Z,6.81
2022-11-12T05:11:59.181Z,6.74
2022-11-12T05:14:29.614Z,6.85
2022-11-12T05:16:57.623Z,6.85
2022-11-12T05:19:27.191Z,6.85
2022-11-12T05:22:05.722Z,6.81
2022-11-12T05:24:43.110Z,6.64
2022-11-12T05:27:20.649Z,6.66
2022-11-12T05:29:50.144Z,6.70
2022-11-12T05:32:19.733Z,6.68
2022-11-12T05:34:49.468Z,6.67
2022-11-12T05:37:17.537Z,6.72
2022-11-12T05:39:47.100Z,6.76
2022-11-12T05:42:16.707Z,6.70
2022-11-12T05:44:46.280Z,6.88
2022-11-12T05:47:16.789Z,6.76
2022-11-12T05:49:46.312Z,6.47
2022-11-12T05:52:15.796Z,6.66
2022-11-12T05:54:45.244Z,6.78
2022-11-12T05:57:14.695Z,6.64
2022-11-12T05:59:44.165Z,6.80
2022-11-12T06:02:13.797Z,6.89
2022-11-12T06:04:43.407Z,6.75
2022-11-12T06:07:12.910Z,6.88
2022-11-12T06:09:41.542Z,6.97
2022-11-12T06:12:10.955Z,6.92
2022-11-12T06:14:40.438Z,6.96
2022-11-12T06:17:09.920Z,6.98
2022-11-12T06:19:39.401Z,6.99
2022-11-12T06:22:08.143Z,7.24
2022-11-12T06:24:37.647Z,7.18
2022-11-12T06:27:07.137Z,7.33
2022-11-12T06:29:36.508Z,7.28
2022-11-12T06:32:05.987Z,7.40
2022-11-12T06:34:35.473Z,7.49
2022-11-12T06:37:04.883Z,7.63
2022-11-12T06:39:34.304Z,7.80
2022-11-12T06:42:04.020Z,7.82
2022-11-12T06:44:33.439Z,7.99
2022-11-12T06:47:03.383Z,8.06
2022-11-12T06:49:33.201Z,8.34
2022-11-12T06:52:02.968Z,8.27
2022-11-12T06:54:31.805Z,8.17
2022-11-12T06:57:01.304Z,8.20
2022-11-12T06:59:30.754Z,8.43
2022-11-12T07:01:59.475Z,8.35
2022-11-12T07:04:29.001Z,8.38
2022-11-12T07:06:58.490Z,8.65
2022-11-12T07:09:27.185Z,8.31
2022-11-12T07:11:55.951Z,8.61
2022-11-12T07:14:25.377Z,8.42
2022-11-12T07:16:55.130Z,8.47
2022-11-12T07:19:24.554Z,8.13
2022-11-12T07:21:54.027Z,8.22
2022-11-12T07:24:23.461Z,8.33
2022-11-12T07:26:52.112Z,8.31
2022-11-12T07:29:42.671Z,8.45
2022-11-12T07:32:11.053Z,8.41
2022-11-12T07:34:40.514Z,8.64
2022-11-12T07:37:09.956Z,8.66
2022-11-12T07:39:39.474Z,9.06
2022-11-12T07:42:07.285Z,9.17
2022-11-12T07:44:36.803Z,9.32
2022-11-12T07:47:06.396Z,9.38
2022-11-12T07:49:35.043Z,9.41
2022-11-12T07:52:04.783Z,9.47
2022-11-12T07:54:34.274Z,9.57
2022-11-12T07:57:03.188Z,9.77
2022-11-12T07:59:31.828Z,9.47
2022-11-12T08:02:01.428Z,9.57
2022-11-12T08:04:31.153Z,9.43
2022-11-12T08:07:00.679Z,9.44
2022-11-12T08:09:29.377Z,9.42
2022-11-12T08:11:57.082Z,9.64
2022-11-12T08:14:27.013Z,9.68
2022-11-12T08:16:56.555Z,9.80
2022-11-12T08:19:25.153Z,9.70
2022-11-12T08:21:53.787Z,9.98
2022-11-12T08:24:23.298Z,9.96
2022-11-12T08:26:51.902Z,10.09
2022-11-12T08:29:20.615Z,10.15
2022-11-12T08:31:52.111Z,10.18
2022-11-12T08:34:22.873Z,10.13
2022-11-12T08:36:52.423Z,10.28
2022-11-12T08:39:21.089Z,10.22
2022-11-12T08:41:50.605Z,10.38
2022-11-12T08:44:19.232Z,10.65
2022-11-12T08:46:47.848Z,10.91
2022-11-12T08:49:17.290Z,11.59
2022-11-12T08:51:45.936Z,11.86
2022-11-12T08:54:14.557Z,11.57
2022-11-12T08:56:43.265Z,11.85
2022-11-12T08:59:11.838Z,12.11
2022-11-12T09:01:41.470Z,12.08
2022-11-12T09:04:10.902Z,12.41
2022-11-12T09:06:40.344Z,12.34
2022-11-12T09:09:10.902Z,11.28
2022-11-12T09:11:39.543Z,10.95
2022-11-12T09:14:08.957Z,11.43
2022-11-12T09:16:38.382Z,11.23
2022-11-12T09:19:07.055Z,11.26
2022-11-12T09:21:36.110Z,11.41
2022-11-12T09:24:05.080Z,11.57
2022-11-12T09:26:34.459Z,11.71
2022-11-12T09:29:03.073Z,11.73
2022-11-12T09:31:32.480Z,11.90
2022-11-12T09:34:01.874Z,11.54
2022-11-12T09:36:34.593Z,11.39
2022-11-12T09:39:06.876Z,11.88
2022-11-12T09:41:42.467Z,11.47
2022-11-12T09:44:24.437Z,11.90
2022-11-12T09:47:12.606Z,11.86
2022-11-12T09:50:28.255Z,12.17
2022-11-12T09:53:44.563Z,11.84
2022-11-12T09:56:18.703Z,11.83
2022-11-12T09:58:48.416Z,11.69
2022-11-12T10:01:45.157Z,11.47
2022-11-12T10:04:28.678Z,11.36
2022-11-12T10:07:11.958Z,11.47
2022-11-12T10:10:10.654Z,11.53
2022-11-12T10:13:16.140Z,11.72
2022-11-12T10:16:19.764Z,12.01
2022-11-12T10:19:23.656Z,11.98
2022-11-12T10:22:19.227Z,11.91
2022-11-12T10:24:49.673Z,12.23
2022-11-12T10:27:38.214Z,12.05
2022-11-12T10:30:21.428Z,12.10
2022-11-12T10:32:52.949Z,12.34
2022-11-12T10:35:24.568Z,12.75
2022-11-12T10:38:14.503Z,12.70
2022-11-12T10:40:43.993Z,12.71
2022-11-12T10:43:19.758Z,12.57
2022-11-12T10:45:51.040Z,12.75
2022-11-12T10:48:35.738Z,12.54
2022-11-12T10:51:27.071Z,12.53
2022-11-12T10:53:56.714Z,12.82
2022-11-12T10:56:31.285Z,12.37
2022-11-12T10:59:25.715Z,12.40
2022-11-12T11:02:01.259Z,12.50
2022-11-12T11:04:36.682Z,12.69
2022-11-12T11:07:25.194Z,11.91
2022-11-12T11:10:00.680Z,12.39
2022-11-12T11:12:35.093Z,12.40
2022-11-12T11:15:22.002Z,12.70
2022-11-12T11:17:53.876Z,12.86
2022-11-12T11:20:44.612Z,12.91
2022-11-12T11:23:37.542Z,12.88
2022-11-12T11:27:17.096Z,13.04
2022-11-12T11:30:21.810Z,13.13
2022-11-12T11:33:43.043Z,13.39
2022-11-12T11:36:48.581Z,13.01
2022-11-12T11:40:00.368Z,13.08
2022-11-12T11:43:43.993Z,13.01
2022-11-12T11:46:44.234Z,13.01
2022-11-12T11:49:53.682Z,13.01
2022-11-12T11:52:46.331Z,12.79
2022-11-12T11:55:35.545Z,13.11
2022-11-12T11:58:39.783Z,13.36
2022-11-12T12:01:30.280Z,13.14
2022-11-12T12:04:21.731Z,12.97
2022-11-12T12:07:31.006Z,13.13
2022-11-12T12:14:14.761Z,13.26
2022-11-12T12:17:31.715Z,13.36
2022-11-12T12:20:49.196Z,12.99
2022-11-12T12:23:48.680Z,13.27
2022-11-12T12:26:37.493Z,13.12
2022-11-12T12:29:49.388Z,13.15
2022-11-12T12:32:41.506Z,13.08
2022-11-12T12:35:39.433Z,12.88
2022-11-12T12:38:23.804Z,12.88
2022-11-12T12:41:42.639Z,12.89
2022-11-12T12:44:12.585Z,12.99
2022-11-12T12:46:59.305Z,13.11
2022-11-12T12:49:37.634Z,13.21
2022-11-12T12:52:06.783Z,13.28
2022-11-12T12:54:37.188Z,13.28
2022-11-12T12:57:09.981Z,13.24
2022-11-12T12:59:39.441Z,13.22
2022-11-12T13:02:23.110Z,13.07
2022-11-12T13:04:58.374Z,13.10
2022-11-12T13:07:45.346Z,13.06
2022-11-12T13:10:42.567Z,13.04
2022-11-12T13:13:19.996Z,13.25
2022-11-12T13:15:54.067Z,13.19
2022-11-12T13:18:52.378Z,13.36
2022-11-12T13:21:22.292Z,12.87
2022-11-12T13:24:12.399Z,12.92
2022-11-12T13:27:00.040Z,12.87
2022-11-12T13:29:29.461Z,13.09
2022-11-12T13:32:34.116Z,13.12
2022-11-12T13:35:20.837Z,12.96
2022-11-12T13:38:08.655Z,13.02
2022-11-12T13:41:17.939Z,12.84
2022-11-12T13:43:47.876Z,12.92
2022-11-12T13:46:34.088Z,12.89
2022-11-12T13:49:15.442Z,12.98
2022-11-12T13:51:52.164Z,13.07
2022-11-12T13:54:37.659Z,13.04
2022-11-12T13:57:25.991Z,12.93
2022-11-12T14:00:21.936Z,12.85
2022-11-12T14:03:07.341Z,12.91
2022-11-12T14:05:39.474Z,12.76
2022-11-12T14:08:30.292Z,12.72
2022-11-12T14:11:21.216Z,12.60
2022-11-12T14:14:17.164Z,12.72
2022-11-12T14:17:22.248Z,12.71
2022-11-12T14:20:18.891Z,12.64
2022-11-12T14:22:48.292Z,12.74
2022-11-12T14:25:23.417Z,12.89
2022-11-12T14:27:57.358Z,12.66
2022-11-12T14:30:32.250Z,12.44
2022-11-12T14:33:10.543Z,12.55
2022-11-12T14:35:40.796Z,12.38
2022-11-12T14:38:10.100Z,12.38
2022-11-12T14:40:49.388Z,12.38
2022-11-12T14:43:45.806Z,12.43
2022-11-12T14:46:48.813Z,12.13
2022-11-12T14:49:46.696Z,12.48
2022-11-12T14:52:33.240Z,12.30
2022-11-12T14:55:13.696Z,12.33
2022-11-12T14:57:43.817Z,12.21
2022-11-12T15:00:53.275Z,12.15
2022-11-12T15:03:30.990Z,12.08
2022-11-12T15:06:03.347Z,11.94
2022-11-12T15:08:40.294Z,12.22
2022-11-12T15:11:35.621Z,11.85
2022-11-12T15:14:05.804Z,12.13
2022-11-12T15:16:36.849Z,12.18
2022-11-12T15:19:25.991Z,12.02
2022-11-12T15:22:01.367Z,12.00
2022-11-12T15:24:37.197Z,11.83
2022-11-12T15:27:43.419Z,11.89
2022-11-12T15:30:26.321Z,11.77
2022-11-12T15:33:22.454Z,11.84
2022-11-12T15:36:02.633Z,11.64
2022-11-12T15:38:36.116Z,11.59
2022-11-12T15:41:06.963Z,11.55
2022-11-12T15:43:42.949Z,11.42
2022-11-12T15:46:17.982Z,11.46
2022-11-12T15:48:51.437Z,11.34
2022-11-12T15:51:23.285Z,11.28
2022-11-12T15:53:52.712Z,11.27
2022-11-12T15:56:22.363Z,11.44
2022-11-12T15:58:51.011Z,11.38
2022-11-12T16:01:20.463Z,11.32
2022-11-12T16:03:49.933Z,11.17
2022-11-12T16:06:19.370Z,11.09
2022-11-12T16:08:47.069Z,11.04
2022-11-12T16:11:45.708Z,11.05
2022-11-12T16:14:15.655Z,11.03
2022-11-12T16:16:44.316Z,10.80
2022-11-12T16:19:15.171Z,10.80
2022-11-12T16:21:43.925Z,10.68
2022-11-12T16:24:13.444Z,10.66
2022-11-12T16:26:43.351Z,10.46
2022-11-12T16:29:15.035Z,10.35
2022-11-12T16:31:44.701Z,10.37
2022-11-12T16:34:13.289Z,10.28
2022-11-12T16:36:43.042Z,10.25
2022-11-12T16:39:14.317Z,10.31
2022-11-12T16:41:42.132Z,10.25
2022-11-12T16:44:09.886Z,10.14
2022-11-12T16:46:44.228Z,10.04
2022-11-12T16:49:16.374Z,10.01
2022-11-12T16:51:44.330Z,10.07
2022-11-12T16:54:13.884Z,10.07
2022-11-12T16:56:43.445Z,9.96
2022-11-12T16:59:15.805Z,10.03
2022-11-12T17:01:45.382Z,10.07
2022-11-12T17:04:14.877Z,10.09
2022-11-12T17:06:44.519Z,10.26
2022-11-12T17:09:13.144Z,10.03
2022-11-12T17:11:42.649Z,10.12
2022-11-12T17:14:11.226Z,10.00
2022-11-12T17:16:40.837Z,10.20
2022-11-12T17:19:11.187Z,10.17
2022-11-12T17:21:40.811Z,10.22
2022-11-12T17:24:11.266Z,10.20
2022-11-12T17:26:41.701Z,10.24
2022-11-12T17:29:09.547Z,10.12
2022-11-12T17:31:39.136Z,10.31
2022-11-12T17:34:09.625Z,10.23
2022-11-12T17:36:43.739Z,10.36
2022-11-12T17:39:14.749Z,10.45
2022-11-12T17:41:44.434Z,10.38
2022-11-12T17:44:18.605Z,10.37
2022-11-12T17:46:48.978Z,10.26
2022-11-12T17:49:19.481Z,10.23
2022-11-12T17:51:49.136Z,10.18
2022-11-12T17:54:21.707Z,10.35
2022-11-12T17:56:51.247Z,10.30
2022-11-12T17:59:20.851Z,10.51
2022-11-12T18:01:52.243Z,10.40
2022-11-12T18:04:22.444Z,10.39
2022-11-12T18:06:53.324Z,10.41
2022-11-12T18:09:24.756Z,10.36
2022-11-12T18:11:56.856Z,10.40
2022-11-12T18:14:26.501Z,10.27
2022-11-12T18:16:54.335Z,10.50
2022-11-12T18:19:25.336Z,10.33
2022-11-12T18:21:57.042Z,10.62
2022-11-12T18:24:26.629Z,10.46
2022-11-12T18:26:56.319Z,10.45
2022-11-12T18:29:25.912Z,10.29
2022-11-12T18:31:55.459Z,10.36
2022-11-12T18:34:26.897Z,10.23
2022-11-12T18:36:58.411Z,10.22
2022-11-12T18:39:29.776Z,10.33
2022-11-12T18:41:58.689Z,10.39
2022-11-12T18:44:29.215Z,10.21
2022-11-12T18:46:57.080Z,10.19
2022-11-12T18:49:24.878Z,10.20
2022-11-12T18:51:52.780Z,10.32
2022-11-12T18:54:20.609Z,10.40
2022-11-12T18:56:51.242Z,10.39
2022-11-12T18:59:22.055Z,10.37
2022-11-12T19:01:50.257Z,10.24
2022-11-12T19:04:20.981Z,10.35
2022-11-12T19:06:51.306Z,10.31
2022-11-12T19:09:21.887Z,10.22
2022-11-12T19:11:53.158Z,10.20
2022-11-12T19:14:24.609Z,10.33
2022-11-12T19:16:54.469Z,10.27
2022-11-12T19:19:24.086Z,10.17
2022-11-12T19:21:53.699Z,10.23
2022-11-12T19:24:23.309Z,10.51
2022-11-12T19:26:51.635Z,10.40
2022-11-12T19:29:21.202Z,10.20
2022-11-12T19:31:51.026Z,10.16
2022-11-12T19:34:20.588Z,9.97
2022-11-12T19:37:00.619Z,10.01
2022-11-12T19:39:39.597Z,10.01
2022-11-12T19:42:09.940Z,9.97
2022-11-12T19:44:41.759Z,9.93
2022-11-12T19:47:11.312Z,9.86
2022-11-12T19:49:40.911Z,9.75
2022-11-12T19:52:12.848Z,9.72
2022-11-12T19:54:43.265Z,9.58
2022-11-12T19:57:12.820Z,9.64
2022-11-12T19:59:42.417Z,9.81
2022-11-12T20:02:15.133Z,9.68
2022-11-12T20:04:44.707Z,9.53
2022-11-12T20:07:12.548Z,9.39
2022-11-12T20:09:42.710Z,9.16
2022-11-12T20:12:12.309Z,9.09
2022-11-12T20:14:40.067Z,8.99
2022-11-12T20:17:09.652Z,8.94
2022-11-12T20:19:39.271Z,8.83
2022-11-12T20:22:09.085Z,8.70
2022-11-12T20:24:38.705Z,8.61
2022-11-12T20:27:08.273Z,8.67
2022-11-12T20:29:37.868Z,8.53
2022-11-12T20:32:07.526Z,8.54
2022-11-12T20:34:37.111Z,8.43
2022-11-12T20:37:06.661Z,8.35
2022-11-12T20:39:38.040Z,8.28
2022-11-12T20:42:09.465Z,8.25
2022-11-12T20:44:37.264Z,8.23
2022-11-12T20:47:06.880Z,8.11
2022-11-12T20:49:38.216Z,8.08
2022-11-12T20:52:07.879Z,7.98
2022-11-12T20:54:38.375Z,7.78
2022-11-12T20:57:06.172Z,7.81
2022-11-12T20:59:34.164Z,7.70
2022-11-12T21:02:02.067Z,7.96
2022-11-12T21:04:29.850Z,7.66
2022-11-12T21:07:04.882Z,7.88
2022-11-12T21:09:35.956Z,7.96
2022-11-12T21:12:06.969Z,7.72
2022-11-12T21:14:37.478Z,7.63
2022-11-12T21:17:07.204Z,7.45
2022-11-12T21:19:36.770Z,7.44
2022-11-12T21:22:06.412Z,7.44
2022-11-12T21:24:36.007Z,7.51
2022-11-12T21:27:05.600Z,7.57
2022-11-12T21:29:34.675Z,7.38
2022-11-12T21:32:04.710Z,7.57
2022-11-12T21:34:35.167Z,7.31
2022-11-12T21:37:04.745Z,7.23
2022-11-12T21:39:34.333Z,7.19
2022-11-12T21:42:04.005Z,7.11
2022-11-12T21:44:33.577Z,7.14
2022-11-12T21:47:03.082Z,7.14
2022-11-12T21:49:32.656Z,7.06
2022-11-12T21:52:02.207Z,7.03
2022-11-12T21:54:31.889Z,7.05
2022-11-12T21:57:01.466Z,7.13
2022-11-12T21:59:31.025Z,6.86
2022-11-12T22:02:00.795Z,6.89
2022-11-12T22:04:30.540Z,6.79
2022-11-12T22:07:00.142Z,6.78
2022-11-12T22:09:29.772Z,6.71
2022-11-12T22:11:59.365Z,6.62
2022-11-12T22:14:28.948Z,6.60
2022-11-12T22:16:58.510Z,6.68
2022-11-12T22:19:28.077Z,6.55
2022-11-12T22:21:58.436Z,6.77
2022-11-12T22:24:28.003Z,6.56
2022-11-12T22:26:55.778Z,6.64
2022-11-12T22:29:25.336Z,6.52
2022-11-12T22:31:54.967Z,6.27
2022-11-12T22:34:24.568Z,6.37
2022-11-12T22:36:54.193Z,6.39
2022-11-12T22:39:23.741Z,6.20
2022-11-12T22:41:53.302Z,6.13
2022-11-12T22:44:22.889Z,6.00
2022-11-12T22:46:52.506Z,6.11
2022-11-12T22:49:22.916Z,6.20
2022-11-12T22:51:52.522Z,6.40
2022-11-12T22:54:22.048Z,6.27
2022-11-12T22:56:51.656Z,6.33
2022-11-12T22:59:21.211Z,6.27
2022-11-12T23:01:50.951Z,5.99
2022-11-12T23:04:18.772Z,6.24
2022-11-12T23:06:46.598Z,5.95
2022-11-12T23:09:17.538Z,5.89
2022-11-12T23:11:47.088Z,5.76
2022-11-12T23:14:16.679Z,5.40
2022-11-12T23:16:46.240Z,5.66
2022-11-12T23:19:15.916Z,5.53
2022-11-12T23:21:45.505Z,5.65
2022-11-12T23:24:15.132Z,5.27
2022-11-12T23:26:44.692Z,5.27
2022-11-12T23:29:14.465Z,5.35
2022-11-12T23:31:44.251Z,5.39
2022-11-12T23:34:13.867Z,5.39
2022-11-12T23:36:43.398Z,5.56
2022-11-12T23:39:12.967Z,5.58
2022-11-12T23:41:43.465Z,5.62
2022-11-12T23:44:13.137Z,5.52
2022-11-12T23:46:42.699Z,5.59
2022-11-12T23:49:12.270Z,5.44
2022-11-12T23:51:41.912Z,5.56
2022-11-12T23:54:11.686Z,5.64
2022-11-12T23:56:41.247Z,5.65
2022-11-12T23:59:10.791Z,5.65
